Time;durP1;ratioP1;P1;durP2;ratioP2;P2;SDS_P1;SDS_P2;PMS_P1;PMS_P2;Temp;Humidity;BMP_temperature;BMP_pressure;BME280_temperature;BME280_humidity;BME280_pressure;Samples;Min_cycle;Max_cycle;Signal;HPM_P1;HPM_P2
2023/12/15 00:01:48;;;;;;;8.68;5.72;;;;;;;;;;5073547;28;20502;-73
2023/12/15 00:04:17;;;;;;;11.57;7.72;;;;;;;;;;5073369;28;20094;-72
2023/12/15 00:06:44;;;;;;;13.27;8.07;;;;;;;;;;5069477;28;20080;-73
2023/12/15 00:09:10;;;;;;;13.27;8.05;;;;;;;;;;5073899;28;20488;-73
2023/12/15 00:11:37;;;;;;;13.90;7.97;;;;;;;;;;5073169;28;20044;-73
2023/12/15 00:14:03;;;;;;;8.75;6.30;;;;;;;;;;5073806;28;20050;-73
2023/12/15 00:16:30;;;;;;;11.57;7.07;;;;;;;;;;5072034;28;20045;-72
2023/12/15 00:18:56;;;;;;;10.55;5.93;;;;;;;;;;5073374;28;20053;-72
2023/12/15 00:21:24;;;;;;;9.10;5.35;;;;;;;;;;5072779;28;20139;-72
2023/12/15 00:23:51;;;;;;;10.30;5.68;;;;;;;;;;5073197;28;20048;-73
2023/12/15 00:26:17;;;;;;;8.23;5.57;;;;;;;;;;5068970;28;20436;-72
2023/12/15 00:28:44;;;;;;;12.63;6.55;;;;;;;;;;5073418;28;20411;-72
2023/12/15 00:31:11;;;;;;;10.25;6.18;;;;;;;;;;5068753;28;20415;-73
2023/12/15 00:33:37;;;;;;;9.10;5.75;;;;;;;;;;5073178;28;20515;-72
2023/12/15 00:36:04;;;;;;;10.82;6.32;;;;;;;;;;5072924;28;20053;-72
2023/12/15 00:38:32;;;;;;;10.35;5.85;;;;;;;;;;5068605;28;20082;-72
2023/12/15 00:40:59;;;;;;;12.25;6.65;;;;;;;;;;5072616;28;20051;-72
2023/12/15 00:43:25;;;;;;;20.20;6.70;;;;;;;;;;5072756;28;20041;-73
2023/12/15 00:45:52;;;;;;;8.85;5.57;;;;;;;;;;5072469;28;20051;-72
2023/12/15 00:48:18;;;;;;;10.52;5.60;;;;;;;;;;5072656;28;20041;-73
2023/12/15 00:50:45;;;;;;;11.75;5.75;;;;;;;;;;5072692;28;20040;-72
2023/12/15 00:53:11;;;;;;;10.32;6.05;;;;;;;;;;5069049;28;20052;-72
2023/12/15 00:55:39;;;;;;;13.90;6.28;;;;;;;;;;5072343;28;20054;-73
2023/12/15 00:58:06;;;;;;;10.85;6.13;;;;;;;;;;5072097;28;20051;-72
2023/12/15 01:00:32;;;;;;;9.77;5.97;;;;;;;;;;5067980;28;20065;-72
2023/12/15 01:02:59;;;;;;;9.35;6.10;;;;;;;;;;5072152;28;20143;-72
2023/12/15 01:05:26;;;;;;;8.35;5.97;;;;;;;;;;5072617;28;20047;-72
2023/12/15 01:07:52;;;;;;;9.52;5.93;;;;;;;;;;5072076;28;20132;-72
2023/12/15 01:10:19;;;;;;;10.45;6.30;;;;;;;;;;5072321;28;20044;-72
2023/12/15 01:12:46;;;;;;;11.65;6.45;;;;;;;;;;5071906;28;20051;-72
2023/12/15 01:15:13;;;;;;;7.97;6.53;;;;;;;;;;5072400;28;20052;-72
2023/12/15 01:17:40;;;;;;;10.60;6.60;;;;;;;;;;5067791;28;20045;-72
2023/12/15 01:20:10;;;;;;;11.45;6.85;;;;;;;;;;5072370;28;20405;-72
2023/12/15 01:22:36;;;;;;;10.02;7.32;;;;;;;;;;5071744;28;20055;-72
2023/12/15 01:25:03;;;;;;;11.43;6.95;;;;;;;;;;5072050;28;20048;-72
2023/12/15 01:27:30;;;;;;;11.73;6.38;;;;;;;;;;5071502;28;20076;-72
2023/12/15 01:29:58;;;;;;;9.85;6.15;;;;;;;;;;5072252;28;20083;-73
2023/12/15 01:32:25;;;;;;;11.25;6.57;;;;;;;;;;5071553;28;20051;-72
2023/12/15 01:34:51;;;;;;;9.77;5.93;;;;;;;;;;5071704;28;20044;-72
2023/12/15 01:37:18;;;;;;;14.10;7.22;;;;;;;;;;5071473;28;20044;-72
2023/12/15 01:39:45;;;;;;;11.40;6.55;;;;;;;;;;5071439;28;20048;-71
2023/12/15 01:42:11;;;;;;;11.07;6.20;;;;;;;;;;5067561;28;20047;-72
2023/12/15 01:44:39;;;;;;;9.60;6.45;;;;;;;;;;5071526;28;20048;-72
2023/12/15 01:47:08;;;;;;;10.52;6.53;;;;;;;;;;5071381;28;20052;-72
2023/12/15 01:49:35;;;;;;;11.00;6.22;;;;;;;;;;5071421;28;20538;-72
2023/12/15 01:52:02;;;;;;;9.75;5.85;;;;;;;;;;5072150;28;20040;-72
2023/12/15 01:54:28;;;;;;;10.80;6.35;;;;;;;;;;5071562;28;20044;-71
2023/12/15 01:56:55;;;;;;;11.63;6.93;;;;;;;;;;5067189;28;20055;-71
2023/12/15 01:59:21;;;;;;;10.57;6.80;;;;;;;;;;5067388;28;20049;-71
2023/12/15 02:01:48;;;;;;;11.38;6.93;;;;;;;;;;5072215;28;20051;-71
2023/12/15 02:04:16;;;;;;;12.30;6.95;;;;;;;;;;5072020;28;20051;-72
2023/12/15 02:06:42;;;;;;;10.75;5.95;;;;;;;;;;5067789;28;20044;-71
2023/12/15 02:09:09;;;;;;;8.93;6.50;;;;;;;;;;5071772;28;20044;-71
2023/12/15 02:11:35;;;;;;;11.25;6.72;;;;;;;;;;5068609;28;20055;-71
2023/12/15 02:14:02;;;;;;;9.43;6.45;;;;;;;;;;5066587;28;20052;-72
2023/12/15 02:16:28;;;;;;;10.45;6.00;;;;;;;;;;5071729;28;20480;-71
2023/12/15 02:18:55;;;;;;;9.43;6.57;;;;;;;;;;5071529;28;20051;-71
2023/12/15 02:21:23;;;;;;;11.82;6.68;;;;;;;;;;5067461;28;20041;-72
2023/12/15 02:23:51;;;;;;;10.75;7.18;;;;;;;;;;5068570;28;20044;-72
2023/12/15 02:26:17;;;;;;;10.27;6.70;;;;;;;;;;5072977;28;20067;-72
2023/12/15 02:28:44;;;;;;;10.65;6.72;;;;;;;;;;5071666;28;20511;-71
2023/12/15 02:31:10;;;;;;;10.55;6.40;;;;;;;;;;5068309;28;20045;-71
2023/12/15 02:33:37;;;;;;;11.48;6.93;;;;;;;;;;5067066;28;20048;-71
2023/12/15 02:36:04;;;;;;;16.20;6.95;;;;;;;;;;5071631;28;20131;-71
2023/12/15 02:38:30;;;;;;;10.93;5.90;;;;;;;;;;5069246;28;20055;-71
2023/12/15 02:40:59;;;;;;;9.95;6.43;;;;;;;;;;5073558;28;20052;-71
2023/12/15 02:43:25;;;;;;;9.88;6.07;;;;;;;;;;5075651;28;20059;-71
2023/12/15 02:45:52;;;;;;;12.13;6.53;;;;;;;;;;5075874;28;20048;-71
2023/12/15 02:48:18;;;;;;;9.60;6.13;;;;;;;;;;5074992;28;20081;-71
2023/12/15 02:50:45;;;;;;;10.13;6.15;;;;;;;;;;5071990;28;20051;-70
2023/12/15 02:53:11;;;;;;;9.32;6.10;;;;;;;;;;5071519;28;20132;-71
2023/12/15 02:55:38;;;;;;;12.73;6.95;;;;;;;;;;5075827;28;20060;-71
2023/12/15 02:58:06;;;;;;;11.55;6.75;;;;;;;;;;5075496;28;20076;-71
2023/12/15 03:00:32;;;;;;;10.73;6.57;;;;;;;;;;5064892;28;20045;-71
2023/12/15 03:02:59;;;;;;;12.63;6.82;;;;;;;;;;5073600;28;20044;-72
2023/12/15 03:05:25;;;;;;;11.48;7.15;;;;;;;;;;5075071;28;20055;-71
2023/12/15 03:07:52;;;;;;;12.32;6.80;;;;;;;;;;5058789;28;20045;-71
2023/12/15 03:10:18;;;;;;;13.07;6.90;;;;;;;;;;5070794;28;20044;-71
2023/12/15 03:12:45;;;;;;;11.27;7.05;;;;;;;;;;5070902;28;20041;-71
2023/12/15 03:15:13;;;;;;;15.38;7.25;;;;;;;;;;5071235;28;20048;-72
2023/12/15 03:17:39;;;;;;;14.23;7.53;;;;;;;;;;5074533;28;20048;-72
2023/12/15 03:20:08;;;;;;;12.57;7.30;;;;;;;;;;5074861;28;20510;-72
2023/12/15 03:22:34;;;;;;;11.40;6.78;;;;;;;;;;5074522;28;20052;-72
2023/12/15 03:25:01;;;;;;;15.40;7.78;;;;;;;;;;5074812;28;20484;-72
2023/12/15 03:27:27;;;;;;;14.88;7.80;;;;;;;;;;5070265;28;20051;-71
2023/12/15 03:29:54;;;;;;;14.02;7.70;;;;;;;;;;5074788;28;20476;-72
2023/12/15 03:32:22;;;;;;;13.57;7.60;;;;;;;;;;5074009;28;20420;-73
2023/12/15 03:34:48;;;;;;;15.80;8.48;;;;;;;;;;5074733;28;20048;-72
2023/12/15 03:37:16;;;;;;;17.27;8.10;;;;;;;;;;5074203;28;20128;-72
2023/12/15 03:39:43;;;;;;;15.18;8.65;;;;;;;;;;5074652;28;20052;-72
2023/12/15 03:42:09;;;;;;;15.15;9.13;;;;;;;;;;5073891;28;20420;-71
2023/12/15 03:44:39;;;;;;;18.13;9.65;;;;;;;;;;5074163;28;20047;-72
2023/12/15 03:47:06;;;;;;;15.88;9.25;;;;;;;;;;5073956;28;20054;-72
2023/12/15 03:49:34;;;;;;;18.02;9.65;;;;;;;;;;5074358;28;20566;-72
2023/12/15 03:52:00;;;;;;;22.45;10.73;;;;;;;;;;5074115;28;20040;-72
2023/12/15 03:54:27;;;;;;;21.73;10.43;;;;;;;;;;5074091;28;20051;-72
2023/12/15 03:56:57;;;;;;;18.50;10.25;;;;;;;;;;5074092;28;20041;-72
2023/12/15 03:59:25;;;;;;;19.88;10.05;;;;;;;;;;5073938;28;20076;-72
2023/12/15 04:01:51;;;;;;;21.45;10.20;;;;;;;;;;5074154;28;20055;-71
2023/12/15 04:04:19;;;;;;;18.20;9.93;;;;;;;;;;5073883;28;20484;-72
2023/12/15 04:06:46;;;;;;;20.75;10.52;;;;;;;;;;5074048;28;20090;-72
2023/12/15 04:09:13;;;;;;;19.85;10.25;;;;;;;;;;5073950;28;20047;-72
2023/12/15 04:11:40;;;;;;;21.08;10.85;;;;;;;;;;5073568;28;20045;-72
2023/12/15 04:14:06;;;;;;;20.67;11.38;;;;;;;;;;5073697;28;20514;-71
2023/12/15 04:16:33;;;;;;;21.02;10.93;;;;;;;;;;5074098;28;20503;-72
2023/12/15 04:18:59;;;;;;;21.10;10.70;;;;;;;;;;5073988;28;20072;-72
2023/12/15 04:21:26;;;;;;;20.80;10.60;;;;;;;;;;5073778;28;20045;-72
2023/12/15 04:23:54;;;;;;;22.70;10.95;;;;;;;;;;5074099;28;20048;-72
2023/12/15 04:26:21;;;;;;;20.15;11.02;;;;;;;;;;5073698;28;20041;-72
2023/12/15 04:28:47;;;;;;;21.80;11.20;;;;;;;;;;5073792;28;20404;-72
2023/12/15 04:31:14;;;;;;;22.27;10.38;;;;;;;;;;5073579;28;20493;-72
2023/12/15 04:33:40;;;;;;;21.77;10.52;;;;;;;;;;5069423;28;20048;-71
2023/12/15 04:36:08;;;;;;;24.80;11.63;;;;;;;;;;5073529;28;20056;-72
2023/12/15 04:38:35;;;;;;;24.08;11.07;;;;;;;;;;5073554;28;20045;-72
2023/12/15 04:41:03;;;;;;;21.98;11.25;;;;;;;;;;5073030;28;20055;-72
2023/12/15 04:43:30;;;;;;;23.35;10.95;;;;;;;;;;5073389;28;20052;-72
2023/12/15 04:45:57;;;;;;;24.95;11.23;;;;;;;;;;5073387;28;20242;-72
2023/12/15 04:48:23;;;;;;;22.20;10.70;;;;;;;;;;5072857;28;20080;-72
2023/12/15 04:50:50;;;;;;;21.00;10.43;;;;;;;;;;5064493;28;20045;-72
2023/12/15 04:53:17;;;;;;;22.73;11.10;;;;;;;;;;5073015;28;20389;-72
2023/12/15 04:55:43;;;;;;;22.05;10.20;;;;;;;;;;5068899;28;20071;-72
2023/12/15 04:58:11;;;;;;;17.50;9.77;;;;;;;;;;5068976;28;20424;-72
2023/12/15 05:00:37;;;;;;;21.08;10.23;;;;;;;;;;5072913;28;20044;-72
2023/12/15 05:03:04;;;;;;;20.58;10.63;;;;;;;;;;5072436;28;20040;-72
2023/12/15 05:05:31;;;;;;;18.77;9.73;;;;;;;;;;5072946;28;20419;-73
2023/12/15 05:07:57;;;;;;;19.70;9.95;;;;;;;;;;5072726;28;20514;-72
2023/12/15 05:10:24;;;;;;;19.90;10.45;;;;;;;;;;5072463;28;20135;-72
2023/12/15 05:12:50;;;;;;;19.80;9.63;;;;;;;;;;5072784;28;20050;-72
2023/12/15 05:15:18;;;;;;;21.23;10.60;;;;;;;;;;5072588;28;20044;-72
2023/12/15 05:17:45;;;;;;;22.70;10.10;;;;;;;;;;5072686;28;20051;-72
2023/12/15 05:20:12;;;;;;;20.35;10.65;;;;;;;;;;5072547;28;20142;-72
2023/12/15 05:22:38;;;;;;;20.05;10.45;;;;;;;;;;5072222;28;20040;-71
2023/12/15 05:25:05;;;;;;;20.90;10.70;;;;;;;;;;5072452;28;20052;-72
2023/12/15 05:27:32;;;;;;;23.48;10.90;;;;;;;;;;5072177;28;20055;-72
2023/12/15 05:29:59;;;;;;;23.48;9.98;;;;;;;;;;5072286;28;20045;-72
2023/12/15 05:32:26;;;;;;;20.45;10.65;;;;;;;;;;5072127;28;20127;-72
2023/12/15 05:34:53;;;;;;;25.10;11.23;;;;;;;;;;5072485;28;20049;-72
2023/12/15 05:37:20;;;;;;;22.35;10.93;;;;;;;;;;5071943;28;20051;-72
2023/12/15 05:39:46;;;;;;;20.77;11.05;;;;;;;;;;5072444;28;20064;-73
2023/12/15 05:42:13;;;;;;;22.50;11.32;;;;;;;;;;5071920;28;20127;-72
2023/12/15 05:44:40;;;;;;;19.42;10.68;;;;;;;;;;5071841;28;20048;-72
2023/12/15 05:47:07;;;;;;;21.20;10.27;;;;;;;;;;5071825;28;20052;-72
2023/12/15 05:49:39;;;;;;;24.05;10.60;;;;;;;;;;5071816;28;20050;-72
2023/12/15 05:52:06;;;;;;;21.15;9.85;;;;;;;;;;5071711;28;20508;-72
2023/12/15 05:54:33;;;;;;;21.15;10.48;;;;;;;;;;5071684;28;20048;-72
2023/12/15 05:56:59;;;;;;;18.58;9.40;;;;;;;;;;5071628;28;20044;-72
2023/12/15 05:59:26;;;;;;;19.80;10.57;;;;;;;;;;5071835;28;20055;-71
2023/12/15 06:01:52;;;;;;;18.45;9.65;;;;;;;;;;5063065;28;20052;-71
2023/12/15 06:04:19;;;;;;;21.25;9.90;;;;;;;;;;5071434;28;20051;-72
2023/12/15 06:06:47;;;;;;;21.20;10.80;;;;;;;;;;5071136;28;20055;-73
2023/12/15 06:09:13;;;;;;;24.27;11.07;;;;;;;;;;5071999;28;20044;-73
2023/12/15 06:11:41;;;;;;;18.48;10.50;;;;;;;;;;5071374;28;20049;-72
2023/12/15 06:14:08;;;;;;;20.33;9.50;;;;;;;;;;5070870;28;20056;-73
2023/12/15 06:16:34;;;;;;;17.48;9.38;;;;;;;;;;5071112;28;20049;-73
2023/12/15 06:19:01;;;;;;;16.13;9.25;;;;;;;;;;5071069;28;20044;-72
2023/12/15 06:21:28;;;;;;;16.33;9.15;;;;;;;;;;5071052;28;20048;-73
2023/12/15 06:23:56;;;;;;;15.05;8.05;;;;;;;;;;5071333;28;20044;-73
2023/12/15 06:26:24;;;;;;;15.15;8.20;;;;;;;;;;5071379;28;20423;-74
2023/12/15 06:28:51;;;;;;;15.73;8.45;;;;;;;;;;5071137;28;20044;-74
2023/12/15 06:31:17;;;;;;;15.63;8.15;;;;;;;;;;5062400;28;20424;-73
2023/12/15 06:33:44;;;;;;;16.60;8.50;;;;;;;;;;5071355;28;20041;-73
2023/12/15 06:36:12;;;;;;;17.15;9.05;;;;;;;;;;5071549;28;20596;-73
2023/12/15 06:38:42;;;;;;;14.88;8.25;;;;;;;;;;5071172;28;20045;-72
2023/12/15 06:41:11;;;;;;;25.48;14.52;;;;;;;;;;5072556;28;20045;-72
2023/12/15 06:43:39;;;;;;;23.77;11.60;;;;;;;;;;5070928;28;20049;-71
2023/12/15 06:46:06;;;;;;;21.92;11.20;;;;;;;;;;5070815;28;20048;-72
2023/12/15 06:48:33;;;;;;;17.60;8.25;;;;;;;;;;5070926;28;20048;-72
2023/12/15 06:50:59;;;;;;;16.25;8.57;;;;;;;;;;5071158;28;20304;-72
2023/12/15 06:53:26;;;;;;;17.00;8.27;;;;;;;;;;5071235;28;20044;-73
2023/12/15 06:55:52;;;;;;;23.48;8.35;;;;;;;;;;5071176;28;20051;-73
2023/12/15 06:58:21;;;;;;;14.95;8.07;;;;;;;;;;5071140;28;20048;-73
2023/12/15 07:00:47;;;;;;;14.35;8.55;;;;;;;;;;5070724;28;20048;-72
2023/12/15 07:03:14;;;;;;;16.05;7.78;;;;;;;;;;5071492;28;20087;-73
2023/12/15 07:05:41;;;;;;;14.05;8.10;;;;;;;;;;5063000;28;20419;-72
2023/12/15 07:08:07;;;;;;;14.27;8.05;;;;;;;;;;5071122;28;20050;-73
2023/12/15 07:10:34;;;;;;;16.15;8.48;;;;;;;;;;5070991;28;20045;-71
2023/12/15 07:13:00;;;;;;;19.38;10.70;;;;;;;;;;5070988;28;20058;-72
2023/12/15 07:15:29;;;;;;;20.63;10.88;;;;;;;;;;5070587;28;20059;-72
2023/12/15 07:17:56;;;;;;;16.73;8.65;;;;;;;;;;5070997;28;20378;-72
2023/12/15 07:20:24;;;;;;;14.45;8.25;;;;;;;;;;5070546;28;20044;-70
2023/12/15 07:22:50;;;;;;;19.83;9.90;;;;;;;;;;5070685;28;20131;-72
2023/12/15 07:25:17;;;;;;;20.55;9.82;;;;;;;;;;5071556;28;20048;-72
2023/12/15 07:27:44;;;;;;;17.45;9.25;;;;;;;;;;5074223;28;20047;-72
2023/12/15 07:30:11;;;;;;;16.45;8.55;;;;;;;;;;5074261;28;20044;-71
2023/12/15 07:32:39;;;;;;;17.80;8.63;;;;;;;;;;5074517;28;20484;-72
2023/12/15 07:35:07;;;;;;;17.95;8.32;;;;;;;;;;5074225;28;20050;-71
2023/12/15 07:37:34;;;;;;;16.08;8.50;;;;;;;;;;5074338;28;20052;-71
2023/12/15 07:40:00;;;;;;;14.57;7.82;;;;;;;;;;5065433;28;20297;-72
2023/12/15 07:42:28;;;;;;;14.30;7.75;;;;;;;;;;5073346;28;20052;-71
2023/12/15 07:44:55;;;;;;;14.15;7.78;;;;;;;;;;5073990;28;20044;-71
2023/12/15 07:47:21;;;;;;;16.70;8.25;;;;;;;;;;5073855;28;20124;-71
2023/12/15 07:49:50;;;;;;;14.55;7.68;;;;;;;;;;5073867;28;20102;-71
2023/12/15 07:52:17;;;;;;;18.70;8.10;;;;;;;;;;5073349;28;20040;-72
2023/12/15 07:54:43;;;;;;;17.10;7.72;;;;;;;;;;5073695;28;20051;-72
2023/12/15 07:57:10;;;;;;;14.23;8.27;;;;;;;;;;5073511;28;20063;-72
2023/12/15 07:59:37;;;;;;;16.95;8.45;;;;;;;;;;5073897;28;20053;-72
2023/12/15 08:02:04;;;;;;;15.45;7.90;;;;;;;;;;5073263;28;20044;-73
2023/12/15 08:04:30;;;;;;;15.40;7.82;;;;;;;;;;5073299;28;20048;-71
2023/12/15 08:06:58;;;;;;;17.85;8.88;;;;;;;;;;5073747;28;20062;-72
2023/12/15 08:09:25;;;;;;;15.90;8.68;;;;;;;;;;5073455;28;20609;-71
2023/12/15 08:11:52;;;;;;;16.50;9.07;;;;;;;;;;5073023;28;20098;-71
2023/12/15 08:14:18;;;;;;;15.95;8.48;;;;;;;;;;5073216;28;20055;-71
2023/12/15 08:16:45;;;;;;;15.70;8.63;;;;;;;;;;5073642;28;20049;-71
2023/12/15 08:19:12;;;;;;;16.48;8.43;;;;;;;;;;5069240;28;20492;-72
2023/12/15 08:21:38;;;;;;;16.85;9.38;;;;;;;;;;5072699;28;20492;-72
2023/12/15 08:24:07;;;;;;;17.55;8.80;;;;;;;;;;5072903;28;20431;-71
2023/12/15 08:26:33;;;;;;;15.77;8.63;;;;;;;;;;5068638;28;20488;-71
2023/12/15 08:29:00;;;;;;;15.02;8.20;;;;;;;;;;5073129;28;20492;-71
2023/12/15 08:31:26;;;;;;;21.60;8.45;;;;;;;;;;5072347;28;20055;-71
2023/12/15 08:33:54;;;;;;;14.57;8.10;;;;;;;;;;5068714;28;20489;-71
2023/12/15 08:36:20;;;;;;;15.35;8.82;;;;;;;;;;5072453;28;20048;-72
2023/12/15 08:38:47;;;;;;;17.48;8.23;;;;;;;;;;5072316;28;20408;-71
2023/12/15 08:41:15;;;;;;;12.73;7.43;;;;;;;;;;5072609;28;20051;-72
2023/12/15 08:43:42;;;;;;;13.98;8.15;;;;;;;;;;5068740;28;20052;-72
2023/12/15 08:46:09;;;;;;;14.77;8.30;;;;;;;;;;5073083;28;20415;-71
2023/12/15 08:48:35;;;;;;;15.27;8.85;;;;;;;;;;5073235;28;20474;-71
2023/12/15 08:51:02;;;;;;;16.80;8.20;;;;;;;;;;5072329;28;20176;-74
2023/12/15 08:53:28;;;;;;;16.00;8.02;;;;;;;;;;5072696;28;20047;-72
2023/12/15 08:55:55;;;;;;;16.45;9.00;;;;;;;;;;5072697;28;20049;-71
2023/12/15 08:58:23;;;;;;;15.45;8.68;;;;;;;;;;5072332;28;20125;-71
2023/12/15 09:00:50;;;;;;;13.85;8.13;;;;;;;;;;5072229;28;20049;-71
2023/12/15 09:03:17;;;;;;;18.55;8.25;;;;;;;;;;5067799;28;20504;-73
2023/12/15 09:05:43;;;;;;;23.00;10.63;;;;;;;;;;5068230;28;20048;-72
2023/12/15 09:08:10;;;;;;;15.45;8.25;;;;;;;;;;5072222;28;20135;-71
2023/12/15 09:10:42;;;;;;;17.60;9.10;;;;;;;;;;5066069;28;20519;-71
2023/12/15 09:13:08;;;;;;;15.55;9.23;;;;;;;;;;5070339;28;20060;-72
2023/12/15 09:15:36;;;;;;;14.25;8.50;;;;;;;;;;5071719;28;20051;-71
2023/12/15 09:18:03;;;;;;;18.75;9.20;;;;;;;;;;5071495;28;20040;-71
2023/12/15 09:20:30;;;;;;;17.67;8.73;;;;;;;;;;5065732;28;20044;-71
2023/12/15 09:22:56;;;;;;;13.75;8.00;;;;;;;;;;5066680;28;20055;-72
2023/12/15 09:25:23;;;;;;;17.23;9.18;;;;;;;;;;5067665;28;20044;-72
2023/12/15 09:27:49;;;;;;;18.45;9.02;;;;;;;;;;5069925;28;20048;-71
2023/12/15 09:30:16;;;;;;;18.00;8.85;;;;;;;;;;5069110;28;20056;-70
2023/12/15 09:32:44;;;;;;;16.75;9.70;;;;;;;;;;5063067;28;20700;-71
2023/12/15 09:35:10;;;;;;;15.30;8.70;;;;;;;;;;5069808;28;20074;-72
2023/12/15 09:37:37;;;;;;;16.45;9.20;;;;;;;;;;5070437;28;20496;-70
2023/12/15 09:40:04;;;;;;;16.85;9.10;;;;;;;;;;5070728;28;20044;-71
2023/12/15 09:42:32;;;;;;;15.98;8.63;;;;;;;;;;5062456;28;20048;-71
2023/12/15 09:44:59;;;;;;;20.17;9.10;;;;;;;;;;5070630;28;20052;-71
2023/12/15 09:47:27;;;;;;;14.88;8.52;;;;;;;;;;5068922;28;20040;-70
2023/12/15 09:50:01;;;;;;;16.38;9.15;;;;;;;;;;5070898;28;20072;-71
2023/12/15 09:52:30;;;;;;;15.20;8.07;;;;;;;;;;5069861;28;20049;-71
2023/12/15 09:54:57;;;;;;;16.60;8.70;;;;;;;;;;5070486;28;20051;-72
2023/12/15 09:57:24;;;;;;;15.32;8.98;;;;;;;;;;5070077;28;20049;-71
2023/12/15 09:59:52;;;;;;;19.25;9.48;;;;;;;;;;5070290;28;20125;-71
2023/12/15 10:02:18;;;;;;;16.77;8.85;;;;;;;;;;5069825;28;20047;-71
2023/12/15 10:04:47;;;;;;;20.25;9.57;;;;;;;;;;5070138;28;20046;-71
2023/12/15 10:07:14;;;;;;;16.90;9.00;;;;;;;;;;5069980;28;20439;-71
2023/12/15 10:09:41;;;;;;;18.45;9.32;;;;;;;;;;5069925;28;20052;-71
2023/12/15 10:12:09;;;;;;;18.58;9.73;;;;;;;;;;5069340;28;20459;-71
2023/12/15 10:14:36;;;;;;;16.42;9.00;;;;;;;;;;5069399;28;20147;-72
2023/12/15 10:17:03;;;;;;;18.38;9.73;;;;;;;;;;5069348;28;20044;-71
2023/12/15 10:19:30;;;;;;;19.25;9.65;;;;;;;;;;5065078;28;20058;-71
2023/12/15 10:21:57;;;;;;;18.63;10.13;;;;;;;;;;5070460;28;20052;-71
2023/12/15 10:24:25;;;;;;;16.42;9.25;;;;;;;;;;5070481;28;20041;-71
2023/12/15 10:26:52;;;;;;;19.50;9.68;;;;;;;;;;5069634;28;20051;-71
2023/12/15 10:29:20;;;;;;;17.15;8.63;;;;;;;;;;5069852;28;20049;-70
2023/12/15 10:31:49;;;;;;;15.95;9.20;;;;;;;;;;5069841;28;20044;-71
2023/12/15 10:34:16;;;;;;;15.82;9.07;;;;;;;;;;5066555;28;20052;-70
2023/12/15 10:36:46;;;;;;;16.25;9.30;;;;;;;;;;5065685;28;20053;-71
2023/12/15 10:39:13;;;;;;;12.95;8.15;;;;;;;;;;5065843;28;20331;-72
2023/12/15 10:41:41;;;;;;;15.00;8.23;;;;;;;;;;5068680;28;20055;-71
2023/12/15 10:44:08;;;;;;;17.70;7.60;;;;;;;;;;5070077;28;20045;-71
2023/12/15 10:46:36;;;;;;;14.00;7.65;;;;;;;;;;5066583;28;20076;-71
2023/12/15 10:49:04;;;;;;;14.90;7.90;;;;;;;;;;5069529;28;20055;-70
2023/12/15 10:51:31;;;;;;;15.15;8.00;;;;;;;;;;5068998;28;20076;-70
2023/12/15 10:53:59;;;;;;;13.80;7.97;;;;;;;;;;5069682;28;20045;-70
2023/12/15 10:56:26;;;;;;;12.90;7.55;;;;;;;;;;5069546;28;20059;-70
2023/12/15 10:58:55;;;;;;;17.38;7.85;;;;;;;;;;5065885;28;20044;-70
2023/12/15 11:01:22;;;;;;;13.85;8.00;;;;;;;;;;5072097;28;20426;-70
2023/12/15 11:03:49;;;;;;;16.77;8.27;;;;;;;;;;5074230;28;20129;-70
2023/12/15 11:06:26;;;;;;;13.70;7.75;;;;;;;;;;5072974;28;20049;-70
2023/12/15 11:08:52;;;;;;;11.65;7.43;;;;;;;;;;5070223;28;20054;-70
2023/12/15 11:11:22;;;;;;;10.73;7.00;;;;;;;;;;5073146;28;20044;-72
2023/12/15 11:13:57;;;;;;;14.40;7.28;;;;;;;;;;5073367;28;20139;-70
2023/12/15 11:16:24;;;;;;;11.48;7.00;;;;;;;;;;5066324;28;20124;-70
2023/12/15 11:18:51;;;;;;;14.48;7.32;;;;;;;;;;5073876;28;20044;-71
2023/12/15 11:21:19;;;;;;;15.75;7.97;;;;;;;;;;5072603;28;20102;-70
2023/12/15 11:23:56;;;;;;;13.30;6.85;;;;;;;;;;5074292;28;20041;-70
2023/12/15 11:26:29;;;;;;;14.20;7.13;;;;;;;;;;5073335;28;20052;-70
2023/12/15 11:29:15;;;;;;;12.32;8.23;;;;;;;;;;5073188;28;20049;-70
2023/12/15 11:31:42;;;;;;;12.40;6.85;;;;;;;;;;5072178;28;20040;-70
2023/12/15 11:34:08;;;;;;;15.60;7.50;;;;;;;;;;5072617;28;20398;-70
2023/12/15 11:36:41;;;;;;;13.98;7.18;;;;;;;;;;5070578;28;20170;-71
2023/12/15 11:39:11;;;;;;;;;;;;;;;;;;5073463;28;20071;-71
2023/12/15 11:41:38;;;;;;;11.00;6.22;;;;;;;;;;5072769;28;19921;-70
2023/12/15 11:44:05;;;;;;;14.60;7.30;;;;;;;;;;5073684;28;20496;-70
2023/12/15 11:46:34;;;;;;;12.65;7.55;;;;;;;;;;5073754;28;20055;-70
2023/12/15 11:49:01;;;;;;;13.73;7.55;;;;;;;;;;5072050;28;20048;-70
2023/12/15 11:51:28;;;;;;;13.27;7.25;;;;;;;;;;5073567;28;20059;-70
2023/12/15 11:53:58;;;;;;;12.13;7.30;;;;;;;;;;5073635;28;20055;-71
2023/12/15 11:56:26;;;;;;;16.70;8.45;;;;;;;;;;5072483;28;20052;-70
2023/12/15 11:58:53;;;;;;;14.13;7.32;;;;;;;;;;5066213;28;20630;-70
2023/12/15 12:01:20;;;;;;;13.20;7.72;;;;;;;;;;5073253;28;20120;-71
2023/12/15 12:03:48;;;;;;;11.88;7.53;;;;;;;;;;5073800;28;20051;-70
2023/12/15 12:06:20;;;;;;;15.77;8.10;;;;;;;;;;5073748;28;20515;-70
2023/12/15 12:08:47;;;;;;;13.40;8.17;;;;;;;;;;5069688;28;20056;-70
2023/12/15 12:11:14;;;;;;;15.48;7.70;;;;;;;;;;5071938;28;20040;-71
2023/12/15 12:13:40;;;;;;;15.27;7.95;;;;;;;;;;5072510;28;20044;-70
2023/12/15 12:16:07;;;;;;;18.80;8.25;;;;;;;;;;5073259;28;20055;-70
2023/12/15 12:18:34;;;;;;;13.77;7.57;;;;;;;;;;5070739;28;20060;-70
2023/12/15 12:21:05;;;;;;;14.25;8.43;;;;;;;;;;5065113;28;20044;-71
2023/12/15 12:23:32;;;;;;;14.77;8.40;;;;;;;;;;5072984;28;20493;-71
2023/12/15 12:26:00;;;;;;;13.85;8.05;;;;;;;;;;5073069;28;20045;-71
2023/12/15 12:28:37;;;;;;;13.65;8.13;;;;;;;;;;5072538;28;20040;-71
2023/12/15 12:31:04;;;;;;;13.93;8.27;;;;;;;;;;5072267;28;20048;-71
2023/12/15 12:33:32;;;;;;;13.77;8.07;;;;;;;;;;5072711;28;20048;-71
2023/12/15 12:35:59;;;;;;;13.18;7.93;;;;;;;;;;5072402;28;20047;-70
2023/12/15 12:38:27;;;;;;;19.33;8.35;;;;;;;;;;5072354;28;20055;-70
2023/12/15 12:40:53;;;;;;;16.65;9.23;;;;;;;;;;5072759;28;20515;-70
2023/12/15 12:43:20;;;;;;;17.63;9.07;;;;;;;;;;5068412;28;20044;-70
2023/12/15 12:45:46;;;;;;;20.58;10.82;;;;;;;;;;5073006;28;20044;-69
2023/12/15 12:48:13;;;;;;;14.82;8.88;;;;;;;;;;5072647;28;20421;-71
2023/12/15 12:50:40;;;;;;;16.08;9.48;;;;;;;;;;5066544;28;20045;-70
2023/12/15 12:53:06;;;;;;;14.88;9.52;;;;;;;;;;5067758;28;20492;-71
2023/12/15 12:55:34;;;;;;;14.77;8.27;;;;;;;;;;5064113;28;20047;-71
2023/12/15 12:58:02;;;;;;;16.48;9.15;;;;;;;;;;5072534;28;20585;-71
2023/12/15 13:00:28;;;;;;;15.50;8.85;;;;;;;;;;5072201;28;20044;-70
2023/12/15 13:02:55;;;;;;;16.63;9.57;;;;;;;;;;5072148;28;20041;-70
2023/12/15 13:05:21;;;;;;;24.30;10.82;;;;;;;;;;5071964;28;20044;-70
2023/12/15 13:07:48;;;;;;;17.08;9.30;;;;;;;;;;5072201;28;20047;-71
2023/12/15 13:10:15;;;;;;;15.68;8.32;;;;;;;;;;5072519;28;20554;-70
2023/12/15 13:12:44;;;;;;;16.77;9.07;;;;;;;;;;5071691;28;20174;-70
2023/12/15 13:15:12;;;;;;;22.20;11.15;;;;;;;;;;5072253;28;20048;-71
2023/12/15 13:17:38;;;;;;;13.20;8.38;;;;;;;;;;5071914;28;20067;-71
2023/12/15 13:20:09;;;;;;;17.77;9.73;;;;;;;;;;5066800;28;20048;-70
2023/12/15 13:22:36;;;;;;;19.55;9.07;;;;;;;;;;5071396;28;20048;-71
2023/12/15 13:25:04;;;;;;;22.27;8.93;;;;;;;;;;5071967;28;20049;-70
2023/12/15 13:27:30;;;;;;;14.75;8.48;;;;;;;;;;5071516;28;20500;-70
2023/12/15 13:29:58;;;;;;;16.08;8.10;;;;;;;;;;5071960;28;20051;-70
2023/12/15 13:32:25;;;;;;;13.05;7.90;;;;;;;;;;5071257;28;20045;-71
2023/12/15 13:34:51;;;;;;;15.52;8.50;;;;;;;;;;5069842;28;20049;-71
2023/12/15 13:37:18;;;;;;;16.23;9.38;;;;;;;;;;5070457;28;20052;-71
2023/12/15 13:39:45;;;;;;;15.02;7.80;;;;;;;;;;5066796;28;20408;-70
2023/12/15 13:42:12;;;;;;;11.30;6.65;;;;;;;;;;5069826;28;20472;-71
2023/12/15 13:44:39;;;;;;;12.02;6.80;;;;;;;;;;5070425;28;20059;-70
2023/12/15 13:47:07;;;;;;;11.40;7.72;;;;;;;;;;5070190;28;20094;-70
2023/12/15 13:49:33;;;;;;;12.68;7.05;;;;;;;;;;5070740;28;20044;-70
2023/12/15 13:52:00;;;;;;;12.40;7.13;;;;;;;;;;5070143;28;20044;-70
2023/12/15 13:54:27;;;;;;;11.82;6.95;;;;;;;;;;5070337;28;20067;-70
2023/12/15 13:56:56;;;;;;;14.50;7.32;;;;;;;;;;5070822;28;20055;-70
2023/12/15 13:59:23;;;;;;;10.32;7.05;;;;;;;;;;5071273;28;20044;-70
2023/12/15 14:01:49;;;;;;;14.15;7.47;;;;;;;;;;5069042;28;20049;-70
2023/12/15 14:04:17;;;;;;;14.20;7.22;;;;;;;;;;5071517;28;20055;-71
2023/12/15 14:06:48;;;;;;;11.73;7.15;;;;;;;;;;5069744;28;20048;-69
2023/12/15 14:09:14;;;;;;;14.50;6.75;;;;;;;;;;5067543;28;20102;-70
2023/12/15 14:11:42;;;;;;;14.02;7.50;;;;;;;;;;5070551;28;20052;-71
2023/12/15 14:14:08;;;;;;;11.82;7.03;;;;;;;;;;5071227;28;20045;-71
2023/12/15 14:16:35;;;;;;;14.38;8.10;;;;;;;;;;5070689;28;20052;-71
2023/12/15 14:19:03;;;;;;;12.15;7.50;;;;;;;;;;5070967;28;20044;-71
2023/12/15 14:21:31;;;;;;;13.63;7.40;;;;;;;;;;5070465;28;20559;-70
2023/12/15 14:23:58;;;;;;;14.00;7.35;;;;;;;;;;5071408;28;20041;-70
2023/12/15 14:26:24;;;;;;;13.13;7.20;;;;;;;;;;5069050;28;20036;-70
2023/12/15 14:28:51;;;;;;;13.20;6.78;;;;;;;;;;5070592;28;20044;-71